WetterOnline ( https://www.wetteronline.de )

Wetter aktuell Schleswig

Aktuelles Wetter: Schleswig (48m)

6-stündlich | Neueste Meldungen
Ortszeit Temperatur Wetter
So, 15.09. 14:00 16.9° C bedeckt
So, 15.09. 8:00 13.3° C leicht bewölkt
So, 15.09. 2:00 11.6° C -
Sa, 14.09. 20:00 13.3° C wolkig
Sa, 14.09. 14:00 18.1° C leicht bewölkt
Sa, 14.09. 8:00 8.1° C leicht bewölkt
Sa, 14.09. 2:00 8.8° C fast wolkenlos
Fr, 13.09. 20:00 13.2° C leicht bewölkt
Ortszeit Temperatur Wetter
So, 15.09. 17:30 15.5° C bedeckt
So, 15.09. 17:20 15.5° C bedeckt
So, 15.09. 17:10 15.7° C bedeckt
So, 15.09. 17:00 15.8° C wolkig
So, 15.09. 16:50 15.8° C wolkig
So, 15.09. 16:40 15.8° C bewölkt
So, 15.09. 16:30 16.3° C wolkig
So, 15.09. 16:00 17.2° C leicht bewölkt
So, 15.09. 15:30 17.7° C wolkig
So, 15.09. 15:00 17.2° C leicht bewölkt
So, 15.09. 14:30 17.3° C wolkig
Ortszeit Relative Feuchte Sichtweite
So, 15.09. 14:00 81% 22 km
So, 15.09. 8:00 83% 30 km
So, 15.09. 2:00 83% 40 km
Sa, 14.09. 20:00 75% 50 km
Sa, 14.09. 14:00 51% 50 km
Sa, 14.09. 8:00 97% 30 km
Sa, 14.09. 2:00 92% 35 km
Fr, 13.09. 20:00 77% 40 km
Ortszeit Relative Feuchte Sichtweite
So, 15.09. 17:30 70% 24 km
So, 15.09. 17:20 70% -
So, 15.09. 17:10 69% -
So, 15.09. 17:00 69% 20 km
So, 15.09. 16:50 69% -
So, 15.09. 16:40 69% -
So, 15.09. 16:30 67% 22 km
So, 15.09. 16:00 65% 30 km
So, 15.09. 15:30 64% 30 km
So, 15.09. 15:00 65% 30 km
So, 15.09. 14:30 76% 25 km
Ortszeit Niederschlagsmenge Niederschlagsart
So, 15.09. 14:00 0.2 l/m2 in 6 Std. Sprühregen
So, 15.09. 8:00 0.0 l/m2 in 12 Std. -
So, 15.09. 2:00 0.0 l/m2 in 6 Std. -
Sa, 14.09. 20:00 0.0 l/m2 in 12 Std. -
Sa, 14.09. 14:00 0.0 l/m2 in 6 Std. -
Sa, 14.09. 8:00 0.0 l/m2 in 12 Std. -
Sa, 14.09. 2:00 0.0 l/m2 in 6 Std. -
Fr, 13.09. 20:00 0.1 l/m2 in 12 Std. -
Ortszeit Niederschlagsmenge Niederschlagsart
So, 15.09. 17:30 0.0 l/m2 in 1 Std. -
So, 15.09. 17:20 keine Meldung -
So, 15.09. 17:10 keine Meldung -
So, 15.09. 17:00 0.0 l/m2 in 1 Std. Sprühregen
So, 15.09. 16:50 keine Meldung -
So, 15.09. 16:40 keine Meldung -
So, 15.09. 16:30 0.0 l/m2 in 1 Std. -
So, 15.09. 16:00 0.0 l/m2 in 1 Std. -
So, 15.09. 15:30 0.0 l/m2 in 1 Std. -
So, 15.09. 15:00 0.1 l/m2 in 1 Std. -
So, 15.09. 14:30 0.1 l/m2 in 1 Std. -
Ortszeit Stärke Spitze Richtung
km/h Bft. km/h Grad Sektor
So, 15.09. 14:00 30 5 50 270° W
So, 15.09. 8:00 17 3 39 230° SW
So, 15.09. 2:00 17 3 33 210° SW
Sa, 14.09. 20:00 9 2 28 220° SW
Sa, 14.09. 14:00 14 3 29 250° W
Sa, 14.09. 8:00 7 2 11 210° SW
Sa, 14.09. 2:00 9 2 19 270° W
Fr, 13.09. 20:00 11 2 47 290° W
Ortszeit Stärke Spitze Richtung
km/h Bft. km/h Grad Sektor
So, 15.09. 17:30 24 4 41 290° W
So, 15.09. 17:20 24 4 - 290° W
So, 15.09. 17:10 22 4 - 280° W
So, 15.09. 17:00 24 4 48 290° W
So, 15.09. 16:50 24 4 - 290° W
So, 15.09. 16:40 22 4 - 310° NW
So, 15.09. 16:30 26 4 48 290° W
So, 15.09. 16:00 26 4 50 290° W
So, 15.09. 15:30 30 5 50 280° W
So, 15.09. 15:00 32 5 61 270° W
So, 15.09. 14:30 24 4 52 280° W
Ortszeit Untergrenze Bedeckung Gattung
total tief tief mittel hoch
So, 15.09. 14:00 510 m 8/8 7/8 Cu - -
So, 15.09. 8:00 4500 m 7/8 3/8 - Ac Cs
So, 15.09. 2:00 - - - - - -
Sa, 14.09. 20:00 9000 m 7/8 0/8 - - -
Sa, 14.09. 14:00 1260 m 4/8 2/8 - - -
Sa, 14.09. 8:00 900 m 4/8 1/8 Sc - Ci
Sa, 14.09. 2:00 9000 m 2/8 0/8 - - -
Fr, 13.09. 20:00 1080 m 4/8 2/8 - - -
Ortszeit Bedeckungsgrad in Achtel und Wolkenuntergrenze
So, 15.09. 17:30 8(3000m) 8(3000m)
So, 15.09. 17:20 8(3000m)
So, 15.09. 17:10 8(3300m)
So, 15.09. 17:00 1(900m) 7(3300m)
So, 15.09. 16:50 2(1260m) 7(3300m)
So, 15.09. 16:40 1(870m) 4(1260m) 8(3300m)
So, 15.09. 16:30 4(900m) 5(1200m) 6(3300m)
So, 15.09. 16:00 3(780m) 4(10500m) 6(5100m)
So, 15.09. 15:30 4(930m) 6(8400m) 7(12000m)
So, 15.09. 15:00 1(900m) 6(12000m) 6(12000m)
So, 15.09. 14:30 6(510m) 7(1170m) 7(2400m)
Ortszeit Luftdruck NN (hPa) Tendenz (hPa in 3 Std.)
So, 15.09. 14:00 1016 - 0,1
So, 15.09. 8:00 1017 - 2,4
So, 15.09. 2:00 1023 - 3,2
Sa, 14.09. 20:00 1029 - 1,9
Sa, 14.09. 14:00 1033 - 1,2
Sa, 14.09. 8:00 1034 0,0
Sa, 14.09. 2:00 1034 + 0,4
Fr, 13.09. 20:00 1033 + 1,0
Ortszeit Luftdruck NN (hPa) Tendenz (hPa in 3 Std.)
So, 15.09. 17:30 1018 + 1,1
So, 15.09. 17:20 1018 keine Meldung
So, 15.09. 17:10 1018 keine Meldung
So, 15.09. 17:00 1018 + 1,3
So, 15.09. 16:50 1018 keine Meldung
So, 15.09. 16:40 1017 keine Meldung
So, 15.09. 16:30 1017 + 1,0
So, 15.09. 16:00 1017 + 0,6
So, 15.09. 15:30 1017 + 0,3
So, 15.09. 15:00 1017 + 0,4
So, 15.09. 14:30 1017 + 0,1
Ortszeit Schneehöhe (cm)
So, 15.09. 14:00 0
So, 15.09. 8:00 0
So, 15.09. 2:00 -
Sa, 14.09. 20:00 -
Sa, 14.09. 14:00 -
Sa, 14.09. 8:00 0
Sa, 14.09. 2:00 -
Fr, 13.09. 20:00 -
Ortszeit Schneehöhe (cm)
So, 15.09. 17:30 -
So, 15.09. 17:20 -
So, 15.09. 17:10 -
So, 15.09. 17:00 -
So, 15.09. 16:50 -
So, 15.09. 16:40 -
So, 15.09. 16:30 -
So, 15.09. 16:00 -
So, 15.09. 15:30 -
So, 15.09. 15:00 -
So, 15.09. 14:30 -
Link zu dieser Seite / Seite empfehlen

Das Wetter in ...